createdAt,value
2019-01-21T00:01:51.766Z,12.600000
2019-01-21T00:04:22.091Z,12.600000
2019-01-21T00:06:52.506Z,13.200000
2019-01-21T00:09:22.735Z,13.200000
2019-01-21T00:11:53.075Z,12.100000
2019-01-21T00:14:23.333Z,12.100000
2019-01-21T00:16:53.689Z,15.100000
2019-01-21T00:19:24.058Z,15.100000
2019-01-21T00:21:54.393Z,12.900000
2019-01-21T00:24:24.604Z,12.900000
2019-01-21T00:26:54.933Z,16.500000
2019-01-21T00:29:25.181Z,16.500000
2019-01-21T00:31:55.550Z,12.800000
2019-01-21T00:34:25.777Z,12.800000
2019-01-21T00:37:03.287Z,15.000000
2019-01-21T00:39:34.186Z,15.000000
2019-01-21T00:42:10.429Z,12.800000
2019-01-21T00:44:40.739Z,12.800000
2019-01-21T00:47:11.115Z,14.300000
2019-01-21T00:49:41.437Z,14.300000
2019-01-21T00:52:11.770Z,11.600000
2019-01-21T00:54:42.105Z,11.600000
2019-01-21T00:57:12.436Z,9.900000
2019-01-21T00:59:42.686Z,9.900000
2019-01-21T01:02:12.971Z,11.900000
2019-01-21T01:04:43.260Z,11.900000
2019-01-21T01:07:13.604Z,12.700000
2019-01-21T01:09:43.937Z,12.700000
2019-01-21T01:12:14.298Z,11.100000
2019-01-21T01:14:44.501Z,11.100000
2019-01-21T01:17:14.767Z,11.400000
2019-01-21T01:19:44.989Z,11.400000
2019-01-21T01:22:15.395Z,14.700000
2019-01-21T01:24:45.741Z,14.700000
2019-01-21T01:27:16.075Z,14.200000
2019-01-21T01:29:46.427Z,14.200000
2019-01-21T01:32:16.740Z,14.500000
2019-01-21T01:34:47.095Z,14.500000
2019-01-21T01:37:17.391Z,13.900000
2019-01-21T01:39:47.658Z,13.900000
2019-01-21T01:42:17.986Z,13.700000
2019-01-21T01:44:48.435Z,13.700000
2019-01-21T01:47:18.762Z,16.700000
2019-01-21T01:49:49.237Z,16.700000
2019-01-21T01:52:19.616Z,13.600000
2019-01-21T01:54:49.987Z,13.600000
2019-01-21T01:57:20.497Z,13.800000
2019-01-21T01:59:50.911Z,13.800000
2019-01-21T02:02:21.269Z,13.200000
2019-01-21T02:04:51.769Z,13.200000
2019-01-21T02:07:22.011Z,11.200000
2019-01-21T02:09:52.347Z,11.200000
2019-01-21T02:12:22.596Z,18.200000
2019-01-21T02:14:52.909Z,18.200000
2019-01-21T02:17:23.438Z,14.600000
2019-01-21T02:19:53.761Z,14.600000
2019-01-21T02:22:24.190Z,14.700000
2019-01-21T02:24:54.616Z,14.700000
2019-01-21T02:27:24.958Z,16.600000
2019-01-21T02:29:55.352Z,16.600000
2019-01-21T02:32:25.763Z,17.500000
2019-01-21T02:34:56.081Z,17.500000
2019-01-21T02:37:26.366Z,15.800000
2019-01-21T02:39:56.997Z,15.800000
2019-01-21T02:42:27.313Z,15.400000
2019-01-21T02:44:57.544Z,15.400000
2019-01-21T02:47:28.058Z,14.100000
2019-01-21T02:49:58.474Z,14.100000
2019-01-21T02:52:28.993Z,14.000000
2019-01-21T02:54:59.297Z,14.000000
2019-01-21T02:57:29.960Z,17.700000
2019-01-21T03:00:00.263Z,17.700000
2019-01-21T03:02:30.579Z,14.900000
2019-01-21T03:05:01.026Z,14.900000
2019-01-21T03:07:31.223Z,15.500000
2019-01-21T03:10:01.535Z,15.500000
2019-01-21T03:12:36.761Z,16.200000
2019-01-21T03:15:07.269Z,16.200000
2019-01-21T03:17:37.583Z,14.800000
2019-01-21T03:20:07.924Z,14.800000
2019-01-21T03:22:38.256Z,10.500000
2019-01-21T03:25:08.582Z,10.500000
2019-01-21T03:27:39.018Z,14.800000
2019-01-21T03:30:09.444Z,14.800000
2019-01-21T03:32:39.906Z,13.100000
2019-01-21T03:35:15.211Z,12.400000
2019-01-21T03:37:45.818Z,12.400000
2019-01-21T03:40:16.009Z,14.500000
2019-01-21T03:42:46.344Z,14.500000
2019-01-21T03:45:16.659Z,16.200000
2019-01-21T03:47:46.999Z,16.200000
2019-01-21T03:50:17.336Z,12.900000
2019-01-21T03:52:47.759Z,12.900000
2019-01-21T03:55:18.205Z,15.200000
2019-01-21T03:57:48.549Z,15.200000
2019-01-21T04:00:18.769Z,14.900000
2019-01-21T04:02:49.182Z,14.900000
2019-01-21T04:05:19.594Z,12.700000
2019-01-21T04:07:50.009Z,12.700000
2019-01-21T04:10:20.330Z,12.300000
2019-01-21T04:12:51.048Z,12.300000
2019-01-21T04:15:21.358Z,16.000000
2019-01-21T04:17:51.676Z,16.000000
2019-01-21T04:20:21.983Z,16.900000
2019-01-21T04:22:52.303Z,16.900000
2019-01-21T04:25:22.926Z,15.100000
2019-01-21T04:27:53.352Z,15.100000
2019-01-21T04:30:23.758Z,16.800000
2019-01-21T04:32:54.178Z,16.800000
2019-01-21T04:35:24.407Z,14.300000
2019-01-21T04:37:54.817Z,14.300000
2019-01-21T04:40:25.186Z,15.800000
2019-01-21T04:42:55.459Z,15.800000
2019-01-21T04:45:25.779Z,14.000000
2019-01-21T04:47:56.284Z,14.000000
2019-01-21T04:50:26.811Z,13.900000
2019-01-21T04:52:57.221Z,13.900000
2019-01-21T04:55:27.820Z,13.400000
2019-01-21T04:57:58.094Z,13.400000
2019-01-21T05:00:28.813Z,17.200000
2019-01-21T05:02:59.203Z,17.200000
2019-01-21T05:05:29.511Z,13.900000
2019-01-21T05:07:59.986Z,13.900000
2019-01-21T05:10:30.317Z,17.800000
2019-01-21T05:13:01.019Z,17.800000
2019-01-21T05:15:31.341Z,18.300000
2019-01-21T05:18:01.635Z,18.300000
2019-01-21T05:20:31.986Z,15.300000
2019-01-21T05:23:04.350Z,15.300000
2019-01-21T05:25:34.563Z,18.800000
2019-01-21T05:28:04.966Z,18.800000
2019-01-21T05:30:35.344Z,16.400000
2019-01-21T05:33:05.762Z,16.400000
2019-01-21T05:35:36.263Z,18.200000
2019-01-21T05:38:06.676Z,18.200000
2019-01-21T05:40:37.184Z,14.500000
2019-01-21T05:43:07.593Z,14.500000
2019-01-21T05:45:37.891Z,17.500000
2019-01-21T05:48:08.271Z,17.500000
2019-01-21T05:50:38.583Z,14.100000
2019-01-21T05:53:08.874Z,14.100000
2019-01-21T05:55:39.205Z,16.300000
2019-01-21T05:58:09.505Z,16.300000
2019-01-21T06:00:39.927Z,12.900000
2019-01-21T06:03:10.233Z,12.900000
2019-01-21T06:05:40.554Z,14.600000
2019-01-21T06:08:11.126Z,14.600000
2019-01-21T06:10:41.587Z,12.300000
2019-01-21T06:13:11.889Z,12.300000
2019-01-21T06:15:42.177Z,14.700000
2019-01-21T06:18:12.559Z,14.700000
2019-01-21T06:20:43.082Z,15.000000
2019-01-21T06:23:13.447Z,15.000000
2019-01-21T06:25:43.775Z,12.400000
2019-01-21T06:28:14.182Z,12.400000
2019-01-21T06:30:44.430Z,14.400000
2019-01-21T06:33:14.825Z,14.400000
2019-01-21T06:35:45.022Z,12.700000
2019-01-21T06:38:15.354Z,12.700000
2019-01-21T06:40:45.607Z,13.500000
2019-01-21T06:43:15.903Z,13.500000
2019-01-21T06:45:46.126Z,14.600000
2019-01-21T06:48:16.592Z,14.600000
2019-01-21T06:50:46.903Z,17.100000
2019-01-21T06:53:17.178Z,17.100000
2019-01-21T06:55:47.490Z,17.400000
2019-01-21T06:58:17.804Z,17.400000
2019-01-21T07:00:48.113Z,12.500000
2019-01-21T07:03:18.541Z,12.500000
2019-01-21T07:05:48.943Z,15.000000
2019-01-21T07:08:19.143Z,15.000000
2019-01-21T07:10:49.552Z,13.600000
2019-01-21T07:13:19.951Z,13.600000
2019-01-21T07:15:50.297Z,14.600000
2019-01-21T07:18:20.738Z,14.600000
2019-01-21T07:20:51.927Z,19.800000
2019-01-21T07:23:22.279Z,19.800000
2019-01-21T07:25:52.571Z,11.300000
2019-01-21T07:28:22.788Z,11.300000
2019-01-21T07:30:53.203Z,12.900000
2019-01-21T07:33:23.718Z,12.900000
2019-01-21T07:35:54.225Z,13.400000
2019-01-21T07:38:24.673Z,13.400000
2019-01-21T07:40:55.013Z,15.800000
2019-01-21T07:43:25.406Z,15.800000
2019-01-21T07:45:55.925Z,17.000000
2019-01-21T07:48:26.216Z,17.000000
2019-01-21T07:50:56.783Z,14.900000
2019-01-21T07:53:27.248Z,14.900000
2019-01-21T07:55:57.652Z,15.900000
2019-01-21T07:58:28.037Z,15.900000
2019-01-21T08:00:58.340Z,15.700000
2019-01-21T08:03:28.762Z,15.700000
2019-01-21T08:06:04.142Z,12.500000
2019-01-21T08:08:34.466Z,15.500000
2019-01-21T08:11:04.880Z,15.500000
2019-01-21T08:13:35.219Z,17.400000
2019-01-21T08:16:05.554Z,17.400000
2019-01-21T08:18:35.786Z,20.300000
2019-01-21T08:21:06.097Z,20.300000
2019-01-21T08:23:36.422Z,18.100000
2019-01-21T08:26:06.736Z,18.100000
2019-01-21T08:28:37.080Z,13.500000
2019-01-21T08:31:07.520Z,13.500000
2019-01-21T08:33:37.833Z,17.000000
2019-01-21T08:36:08.121Z,17.000000
2019-01-21T08:38:38.386Z,15.400000
2019-01-21T08:41:08.685Z,15.400000
2019-01-21T08:43:38.932Z,15.800000
2019-01-21T08:46:09.320Z,15.800000
2019-01-21T08:48:39.666Z,14.100000
2019-01-21T08:51:10.015Z,14.100000
2019-01-21T08:53:40.564Z,14.900000
2019-01-21T08:56:10.830Z,14.900000
2019-01-21T08:58:41.073Z,11.300000
2019-01-21T09:01:11.313Z,11.300000
2019-01-21T09:03:41.620Z,18.100000
2019-01-21T09:06:11.959Z,18.100000
2019-01-21T09:08:42.206Z,16.700000
2019-01-21T09:11:12.486Z,16.700000
2019-01-21T09:13:42.801Z,17.700000
2019-01-21T09:16:13.063Z,17.700000
2019-01-21T09:18:43.318Z,16.300000
2019-01-21T09:21:13.642Z,16.300000
2019-01-21T09:23:43.995Z,17.500000
2019-01-21T09:26:14.234Z,17.500000
2019-01-21T09:28:44.674Z,19.500000
2019-01-21T09:31:14.962Z,19.500000
2019-01-21T09:33:45.356Z,22.400000
2019-01-21T09:36:15.617Z,22.400000
2019-01-21T09:38:47.254Z,20.600000
2019-01-21T09:41:17.564Z,20.600000
2019-01-21T09:43:47.951Z,15.400000
2019-01-21T09:46:18.321Z,15.400000
2019-01-21T09:48:48.518Z,19.300000
2019-01-21T09:51:19.047Z,19.300000
2019-01-21T09:53:49.296Z,18.800000
2019-01-21T09:56:19.603Z,18.800000
2019-01-21T09:58:50.082Z,21.600000
2019-01-21T10:01:20.567Z,21.600000
2019-01-21T10:03:50.843Z,22.200000
2019-01-21T10:06:21.142Z,22.200000
2019-01-21T10:08:51.562Z,17.800000
2019-01-21T10:11:21.923Z,17.800000
2019-01-21T10:13:52.444Z,17.100000
2019-01-21T10:16:22.668Z,17.100000
2019-01-21T10:18:52.947Z,20.800000
2019-01-21T10:21:23.340Z,20.800000
2019-01-21T10:23:53.675Z,22.100000
2019-01-21T10:26:23.959Z,22.100000
2019-01-21T10:28:54.274Z,23.300000
2019-01-21T10:31:24.608Z,23.300000
2019-01-21T10:33:54.915Z,19.000000
2019-01-21T10:36:25.145Z,19.000000
2019-01-21T10:38:55.459Z,17.700000
2019-01-21T10:41:25.709Z,17.700000
2019-01-21T10:43:56.046Z,22.800000
2019-01-21T10:46:26.345Z,22.800000
2019-01-21T10:48:56.579Z,21.200000
2019-01-21T10:51:27.005Z,21.200000
2019-01-21T10:53:57.330Z,21.100000
2019-01-21T10:56:27.752Z,21.100000
2019-01-21T10:58:58.068Z,19.500000
2019-01-21T11:01:28.482Z,19.500000
2019-01-21T11:03:58.853Z,15.400000
2019-01-21T11:06:29.167Z,15.400000
2019-01-21T11:08:59.449Z,16.300000
2019-01-21T11:11:29.787Z,16.300000
2019-01-21T11:14:00.107Z,21.100000
2019-01-21T11:16:30.327Z,21.100000
2019-01-21T11:19:00.629Z,12.400000
2019-01-21T11:21:30.860Z,12.400000
2019-01-21T11:24:01.235Z,15.100000
2019-01-21T11:26:31.564Z,15.100000
2019-01-21T11:29:02.106Z,15.200000
2019-01-21T11:31:32.418Z,15.200000
2019-01-21T11:34:02.678Z,15.600000
2019-01-21T11:36:33.011Z,15.600000
2019-01-21T11:39:03.259Z,19.900000
2019-01-21T11:41:33.524Z,19.900000
2019-01-21T11:44:03.785Z,20.400000
2019-01-21T11:46:34.188Z,20.400000
2019-01-21T11:49:04.519Z,22.300000
2019-01-21T11:51:34.948Z,22.300000
2019-01-21T11:54:05.197Z,21.800000
2019-01-21T11:56:35.560Z,21.800000
2019-01-21T11:59:05.836Z,22.600000
2019-01-21T12:01:36.136Z,22.600000
2019-01-21T12:04:06.394Z,21.100000
2019-01-21T12:06:36.965Z,21.100000
2019-01-21T12:09:07.334Z,17.400000
2019-01-21T12:11:37.662Z,17.400000
2019-01-21T12:14:08.057Z,19.200000
2019-01-21T12:16:38.564Z,19.200000
2019-01-21T12:19:08.828Z,20.200000
2019-01-21T12:21:39.240Z,20.200000
2019-01-21T12:24:09.557Z,22.400000
2019-01-21T12:26:40.018Z,22.400000
2019-01-21T12:29:10.282Z,16.100000
2019-01-21T12:31:40.561Z,16.100000
2019-01-21T12:34:10.894Z,19.800000
2019-01-21T12:36:42.303Z,19.800000
2019-01-21T12:39:14.796Z,23.000000
2019-01-21T12:41:45.186Z,23.000000
2019-01-21T12:44:15.456Z,21.600000
2019-01-21T12:46:45.800Z,21.600000
2019-01-21T12:49:16.259Z,20.300000
2019-01-21T12:51:46.568Z,20.300000
2019-01-21T12:54:16.895Z,21.400000
2019-01-21T12:56:47.153Z,21.400000
2019-01-21T12:59:17.451Z,25.200000
2019-01-21T13:01:48.005Z,25.200000
2019-01-21T13:04:18.283Z,21.000000
2019-01-21T13:06:48.564Z,21.000000
2019-01-21T13:09:18.963Z,22.900000
2019-01-21T13:11:49.167Z,22.900000
2019-01-21T13:14:19.448Z,24.100000
2019-01-21T13:16:55.720Z,24.100000
2019-01-21T13:19:26.041Z,20.400000
2019-01-21T13:21:56.333Z,17.600000
2019-01-21T13:24:26.628Z,17.600000
2019-01-21T13:26:57.023Z,17.300000
2019-01-21T13:29:27.319Z,17.300000
2019-01-21T13:31:57.817Z,19.500000
2019-01-21T13:34:28.090Z,19.500000
2019-01-21T13:36:58.387Z,65.200000
2019-01-21T13:39:28.689Z,65.200000
2019-01-21T13:41:59.118Z,89.100000
2019-01-21T13:44:29.535Z,89.100000
2019-01-21T13:46:59.835Z,108.700000
2019-01-21T13:49:30.195Z,108.700000
2019-01-21T13:52:00.568Z,44.900000
2019-01-21T13:54:30.943Z,44.900000
2019-01-21T13:57:01.227Z,39.200000
2019-01-21T13:59:31.577Z,39.200000
2019-01-21T14:02:01.958Z,46.700000
2019-01-21T14:04:32.326Z,46.700000
2019-01-21T14:07:03.833Z,48.400000
2019-01-21T14:09:34.168Z,48.400000
2019-01-21T14:12:04.512Z,34.500000
2019-01-21T14:14:34.984Z,34.500000
2019-01-21T14:17:05.351Z,42.400000
2019-01-21T14:19:35.741Z,42.400000
2019-01-21T14:22:05.956Z,28.000000
2019-01-21T14:24:36.726Z,28.000000
2019-01-21T14:27:07.232Z,22.900000
2019-01-21T14:29:37.742Z,22.900000
2019-01-21T14:32:08.019Z,26.600000
2019-01-21T14:34:38.275Z,26.600000
2019-01-21T14:37:08.586Z,28.500000
2019-01-21T14:39:38.997Z,28.500000
2019-01-21T14:42:10.814Z,21.500000
2019-01-21T14:44:41.183Z,21.500000
2019-01-21T14:47:11.514Z,22.600000
2019-01-21T14:49:41.854Z,22.600000
2019-01-21T14:52:12.230Z,24.400000
2019-01-21T14:54:47.639Z,24.400000
2019-01-21T14:57:18.087Z,21.500000
2019-01-21T14:59:48.321Z,21.500000
2019-01-21T15:02:18.672Z,19.800000
2019-01-21T15:04:49.120Z,19.800000
2019-01-21T15:07:24.508Z,22.800000
2019-01-21T15:09:57.023Z,22.800000
2019-01-21T15:12:27.412Z,22.900000
2019-01-21T15:14:57.844Z,22.900000
2019-01-21T15:17:28.292Z,20.800000
2019-01-21T15:19:58.734Z,20.800000
2019-01-21T15:22:29.293Z,21.100000
2019-01-21T15:24:59.728Z,21.100000
2019-01-21T15:27:30.084Z,25.000000
2019-01-21T15:30:00.852Z,25.000000
2019-01-21T15:32:31.155Z,24.600000
2019-01-21T15:35:06.561Z,24.600000
2019-01-21T15:37:37.274Z,24.800000
2019-01-21T15:40:08.148Z,24.800000
2019-01-21T15:42:38.590Z,24.500000
2019-01-21T15:45:09.097Z,24.500000
2019-01-21T15:47:39.597Z,23.600000
2019-01-21T15:50:09.928Z,23.600000
2019-01-21T15:52:41.602Z,27.800000
2019-01-21T15:55:12.176Z,27.800000
2019-01-21T15:57:42.622Z,26.000000
2019-01-21T16:00:12.923Z,26.000000
2019-01-21T16:02:43.259Z,27.800000
2019-01-21T16:05:13.598Z,27.800000
2019-01-21T16:07:44.150Z,26.500000
2019-01-21T16:10:14.437Z,26.500000
2019-01-21T16:12:44.848Z,26.000000
2019-01-21T16:15:15.130Z,26.000000
2019-01-21T16:17:45.501Z,26.200000
2019-01-21T16:20:15.845Z,26.200000
2019-01-21T16:22:46.171Z,28.300000
2019-01-21T16:25:16.509Z,28.300000
2019-01-21T16:27:46.849Z,27.100000
2019-01-21T16:30:17.355Z,27.100000
2019-01-21T16:32:47.615Z,25.800000
2019-01-21T16:35:17.899Z,25.800000
2019-01-21T16:37:48.331Z,27.700000
2019-01-21T16:40:18.629Z,27.700000
2019-01-21T16:42:48.897Z,25.900000
2019-01-21T16:45:19.489Z,25.900000
2019-01-21T16:47:49.896Z,24.900000
2019-01-21T16:50:20.157Z,24.900000
2019-01-21T16:52:50.494Z,26.200000
2019-01-21T16:55:20.807Z,26.200000
2019-01-21T16:57:51.051Z,22.900000
2019-01-21T17:00:21.378Z,22.900000
2019-01-21T17:02:51.794Z,23.600000
2019-01-21T17:05:24.276Z,23.600000
2019-01-21T17:07:54.616Z,27.300000
2019-01-21T17:10:25.328Z,27.300000
2019-01-21T17:12:55.674Z,26.300000
2019-01-21T17:15:25.974Z,26.300000
2019-01-21T17:17:58.391Z,25.700000
2019-01-21T17:20:33.736Z,25.700000
2019-01-21T17:23:09.103Z,24.200000
2019-01-21T17:25:39.492Z,22.900000
2019-01-21T17:28:09.905Z,22.900000
2019-01-21T17:30:40.213Z,26.800000
2019-01-21T17:33:10.538Z,26.800000
2019-01-21T17:35:40.925Z,31.900000
2019-01-21T17:38:11.484Z,31.900000
2019-01-21T17:40:41.987Z,32.400000
2019-01-21T17:43:12.434Z,32.400000
2019-01-21T17:45:42.854Z,33.500000
2019-01-21T17:48:13.383Z,33.500000
2019-01-21T17:50:43.674Z,31.100000
2019-01-21T17:53:13.982Z,31.100000
2019-01-21T17:55:44.406Z,33.000000
2019-01-21T17:58:14.767Z,33.000000
2019-01-21T18:00:45.100Z,28.400000
2019-01-21T18:03:15.484Z,28.400000
2019-01-21T18:05:46.008Z,28.400000
2019-01-21T18:08:16.399Z,28.400000
2019-01-21T18:10:46.799Z,27.500000
2019-01-21T18:13:17.070Z,27.500000
2019-01-21T18:15:47.341Z,27.300000
2019-01-21T18:18:17.752Z,27.300000
2019-01-21T18:20:47.975Z,24.400000
2019-01-21T18:23:18.298Z,24.400000
2019-01-21T18:25:48.738Z,27.400000
2019-01-21T18:28:19.064Z,27.400000
2019-01-21T18:30:49.342Z,24.300000
2019-01-21T18:33:19.704Z,24.300000
2019-01-21T18:35:50.055Z,33.000000
2019-01-21T18:38:25.369Z,33.000000
2019-01-21T18:40:55.792Z,27.000000
2019-01-21T18:43:26.093Z,27.000000
2019-01-21T18:45:56.519Z,23.900000
2019-01-21T18:48:27.044Z,23.900000
2019-01-21T18:50:57.331Z,28.600000
2019-01-21T18:53:27.612Z,28.600000
2019-01-21T18:55:57.923Z,30.700000
2019-01-21T18:58:33.335Z,30.700000
2019-01-21T19:01:03.698Z,27.200000
2019-01-21T19:03:34.280Z,27.200000
2019-01-21T19:06:04.516Z,24.400000
2019-01-21T19:08:34.838Z,24.400000
2019-01-21T19:11:05.459Z,22.600000
2019-01-21T19:13:35.921Z,22.600000
2019-01-21T19:16:06.271Z,22.800000
2019-01-21T19:18:36.528Z,22.800000
2019-01-21T19:21:06.855Z,23.800000
2019-01-21T19:23:37.318Z,23.800000
2019-01-21T19:26:07.698Z,22.900000
2019-01-21T19:28:38.070Z,22.900000
2019-01-21T19:31:08.619Z,25.800000
2019-01-21T19:33:38.946Z,25.800000
2019-01-21T19:36:09.326Z,26.300000
2019-01-21T19:38:39.518Z,26.300000
2019-01-21T19:41:09.813Z,25.100000
2019-01-21T19:43:40.040Z,25.100000
2019-01-21T19:46:10.337Z,23.700000
2019-01-21T19:48:40.702Z,23.700000
2019-01-21T19:51:10.989Z,24.500000
2019-01-21T19:53:41.303Z,24.500000
2019-01-21T19:56:11.690Z,27.200000
2019-01-21T19:58:42.417Z,27.200000
2019-01-21T20:01:12.734Z,24.600000
2019-01-21T20:03:43.015Z,24.600000
2019-01-21T20:06:13.301Z,25.100000
2019-01-21T20:08:43.654Z,25.100000
2019-01-21T20:11:13.895Z,22.200000
2019-01-21T20:13:44.281Z,22.200000
2019-01-21T20:16:14.750Z,22.500000
2019-01-21T20:18:45.049Z,22.500000
2019-01-21T20:21:15.488Z,26.300000
2019-01-21T20:23:45.848Z,26.300000
2019-01-21T20:26:16.170Z,26.800000
2019-01-21T20:28:46.531Z,26.800000
2019-01-21T20:31:16.791Z,25.400000
2019-01-21T20:33:51.964Z,25.400000
2019-01-21T20:36:22.529Z,28.600000
2019-01-21T20:38:53.622Z,28.600000
2019-01-21T20:41:24.065Z,23.000000
2019-01-21T20:43:54.273Z,23.000000
2019-01-21T20:46:24.613Z,24.700000
2019-01-21T20:48:54.868Z,24.700000
2019-01-21T20:51:25.138Z,27.200000
2019-01-21T20:53:55.523Z,27.200000
2019-01-21T20:56:25.881Z,25.700000
2019-01-21T20:58:56.260Z,25.700000
2019-01-21T21:01:26.559Z,27.800000
2019-01-21T21:03:57.020Z,27.800000
2019-01-21T21:06:27.425Z,24.500000
2019-01-21T21:08:57.823Z,24.500000
2019-01-21T21:11:28.074Z,26.800000
2019-01-21T21:13:58.444Z,26.800000
2019-01-21T21:16:28.777Z,26.400000
2019-01-21T21:18:59.095Z,26.400000
2019-01-21T21:21:29.465Z,24.500000
2019-01-21T21:23:59.800Z,24.500000
2019-01-21T21:26:30.280Z,32.300000
2019-01-21T21:29:00.734Z,32.300000
2019-01-21T21:31:31.066Z,28.300000
2019-01-21T21:34:01.306Z,28.300000
2019-01-21T21:36:37.148Z,29.300000
2019-01-21T21:39:07.580Z,29.300000
2019-01-21T21:41:38.025Z,28.100000
2019-01-21T21:44:08.710Z,28.100000
2019-01-21T21:46:39.086Z,30.400000
2019-01-21T21:49:09.486Z,30.400000
2019-01-21T21:51:39.778Z,31.500000
2019-01-21T21:54:10.171Z,31.500000
2019-01-21T21:56:40.532Z,26.200000
2019-01-21T21:59:10.945Z,30.200000
2019-01-21T22:01:41.359Z,30.200000
2019-01-21T22:04:11.851Z,32.700000
2019-01-21T22:06:42.115Z,32.700000
2019-01-21T22:09:12.493Z,29.400000
2019-01-21T22:11:43.209Z,29.400000
2019-01-21T22:14:13.511Z,32.600000
2019-01-21T22:16:43.894Z,32.600000
2019-01-21T22:19:14.307Z,27.200000
2019-01-21T22:21:44.643Z,27.200000
2019-01-21T22:24:15.403Z,27.300000
2019-01-21T22:26:45.805Z,27.300000
2019-01-21T22:29:16.153Z,25.500000
2019-01-21T22:31:46.531Z,25.500000
2019-01-21T22:34:16.913Z,28.200000
2019-01-21T22:36:47.286Z,28.200000
2019-01-21T22:39:17.676Z,27.500000
2019-01-21T22:41:48.046Z,27.500000
2019-01-21T22:44:18.421Z,27.300000
2019-01-21T22:46:48.771Z,27.300000
2019-01-21T22:49:19.104Z,29.100000
2019-01-21T22:51:49.413Z,29.100000
2019-01-21T22:54:19.782Z,27.400000
2019-01-21T22:56:50.079Z,27.400000
2019-01-21T22:59:20.630Z,28.800000
2019-01-21T23:01:51.016Z,28.800000
2019-01-21T23:04:21.307Z,29.400000
2019-01-21T23:06:51.588Z,29.400000
2019-01-21T23:09:22.014Z,30.000000
2019-01-21T23:11:52.389Z,30.000000
2019-01-21T23:14:22.845Z,28.600000
2019-01-21T23:16:53.205Z,28.600000
2019-01-21T23:19:23.536Z,25.100000
2019-01-21T23:21:58.938Z,25.100000
2019-01-21T23:24:29.254Z,30.000000
2019-01-21T23:26:59.605Z,30.000000
2019-01-21T23:29:29.975Z,27.300000
2019-01-21T23:32:00.346Z,27.300000
2019-01-21T23:34:30.917Z,31.900000
2019-01-21T23:37:01.218Z,31.900000
2019-01-21T23:39:31.571Z,30.000000
2019-01-21T23:42:01.964Z,30.000000
2019-01-21T23:44:32.432Z,24.800000
2019-01-21T23:47:03.093Z,24.800000
2019-01-21T23:49:33.465Z,22.700000
2019-01-21T23:52:03.875Z,22.700000
2019-01-21T23:54:34.234Z,32.300000
2019-01-21T23:57:04.527Z,32.300000
2019-01-21T23:59:34.916Z,32.900000
